DNKN/KAN METAR and TAF weather

Enter ICAO airport designator
Station Type Date Time Source
DNKN METAR 2024/05/28 22:00 UTC NOAA

DNKN 282200Z 21012KT 9999 TS FEW012 FEW021CB 32/24 Q1015 TEMPO 7000 TS


Station Type Date Time Source
DNKN Decoded METAR 2024/05/28 22:00 UTC NOAA

Kano, Nigeria (DNKN) 12-03N 008-32E 481M
May 28, 2024 - 06:00 PM EDT / 2024.05.28 2200 UTC
Wind: from the SSW (210 degrees) at 14 MPH (12 KT):0
Visibility: greater than 7 mile(s):0
Sky conditions: mostly clear
Weather: thunder; Cumulonimbus clouds observed
Temperature: 89 F (32 C)
Heat index: 98.4 F (36.9 C):1
Dew Point: 75 F (24 C)
Relative Humidity: 62%
Pressure (altimeter): 29.97 in. Hg (1015 hPa)
ob: DNKN 282200Z 21012KT 9999 TS FEW012 FEW021CB 32/24 Q1015 TEMPO 7000 TS
cycle: 22

Station Type Date Time Source
DNKN TAF 2024/05/28 18:57 UTC NOAA